MOL Paramount — 3ECH9 — position and weather

sailwx.info

Track history (hours):
 
Tides and Currents Weather Stations Pressure Air Temp Water Temp Dewpoint Dewpoint Depression Visibility Wind Speed Wind Dir Waves Ship Positions

MOL Paramount

Last reported at 2016-May-29 04:33 UTC. Time now 2016-May-29 05:48 UTC.
Position N 51°23' E 002°00'.

Length 293 m; draft 9.6 m.

Type: Cargo ship. MMSI: 371519000.

Date/timePositionNaut miles runAvg speedWind from/ knotsBaromVisibWave heightAir tempDewpointWater temp
2016-May-29 04:33N 51°23' E 002°00'1010.5
2016-May-29 03:33N 51°29' E 001°47'10 9.9
2016-May-29 02:33N 51°28' E 001°31'1010.0
2016-May-29 01:33N 51°36' E 001°21'1313.1
2016-May-29 00:33N 51°30' E 001°02'1515.4
2016-May-28 23:33N 51°30' E 000°37'5 4.6
2016-May-28 22:34N 51°30' E 000°30'0 0.0
2016-May-28 21:34N 51°30' E 000°30'0 0.0
2016-May-28 20:34N 51°30' E 000°30'0 0.0
2016-May-28 19:33N 51°30' E 000°30'0 0.0
2016-May-28 18:34N 51°30' E 000°30'0 0.0
2016-May-28 17:33N 51°30' E 000°30'0 0.0
2016-May-28 16:34N 51°30' E 000°30'0 0.0
2016-May-28 15:34N 51°30' E 000°30'0 0.0
2016-May-28 14:34N 51°30' E 000°30'0 0.0
2016-May-28 13:34N 51°30' E 000°30'1 1.0
2016-May-28 12:33N 51°30' E 000°31'1111.2
2016-May-28 11:33N 51°29' E 000°49'1717.0
2016-May-28 10:34N 51°35' E 001°15'1817.8
2016-May-28 09:34N 51°48' E 001°35'7 7.5
2016-May-28 08:34N 51°51' E 001°46'10 9.7
2016-May-28 07:34N 51°42' E 001°49'1312.6
2016-May-28 06:33N 51°30' E 001°56'1312.8
2016-May-28 05:33N 51°19' E 002°07'1313.4
2016-May-28 04:33N 51°10' E 001°52'1514.9
2016-May-28 03:34N 51°00' E 001°34'1515.0
2016-May-28 02:33N 50°47' E 001°23'3214.7
2016-May-28 00:21N 50°26' E 000°45'1215.5
2016-May-27 23:33N 50°23' E 000°26'1515.4
2016-May-27 22:33N 50°19' E 000°03'1615.7
2016-May-27 21:33N 50°15' W 000°21'1616.0
2016-May-27 20:33N 50°11' W 000°46'1615.5
2016-May-27 19:33N 50°07' W 001°09'1515.0
2016-May-27 18:33N 50°04' W 001°32'1414.1
2016-May-27 17:33N 50°01' W 001°53'1513.9
2016-May-27 16:27N 49°56' W 002°16'1914.9
2016-May-27 15:11N 49°51' W 002°44'1215.0
2016-May-27 14:22N 49°47' W 003°02'1215.0
2016-May-27 13:34N 49°40' W 003°18'1615.0
2016-May-27 12:31N 49°32' W 003°39'1415.1
2016-May-27 11:33N 49°25' W 003°57'1514.2
2016-May-27 10:30N 49°17' W 004°17'4314.7
2016-May-27 07:33N 48°55' W 005°14'1515.2
2016-May-27 06:33N 48°48' W 005°34'1514.8
2016-May-27 05:33N 48°35' W 005°47'59714.9
2016-May-25 13:33N 39°04' W 009°52'1615.9
2016-May-25 12:33N 38°49' W 009°52'1515.3
2016-May-25 11:33N 38°34' W 009°48'1615.5
2016-May-25 10:33N 38°18' W 009°44'1515.4
2016-May-25 09:33N 38°03' W 009°40'1615.4
2016-May-25 08:33N 37°48' W 009°35'9913.6
2016-May-25 01:14N 36°31' W 008°17'13315.3
2016-May-24 16:32N 35°58' W 005°37'1414.7
2016-May-24 15:33N 36°02' W 005°20'19914.8
2016-May-24 02:07N 36°60' W 001°23'2616.4
2016-May-24 00:31N 37°17' W 000°58'1616.0
2016-May-23 23:33N 37°27' W 000°43'1616.1
2016-May-23 22:33N 37°39' W 000°29'1616.5
2016-May-23 21:33N 37°53' W 000°18'1716.7
2016-May-23 20:31N 38°07' W 000°06'1616.3
2016-May-23 19:33N 38°21' E 000°05'1615.8
2016-May-23 18:33N 38°34' E 000°16'2613.1
2016-May-23 16:33N 38°60' E 000°10'1815.5
2016-May-23 15:24N 39°14' W 000°04'1315.5
2016-May-23 14:33N 39°24' W 000°15'4 4.2
2016-May-23 13:33N 39°26' W 000°20'0 0.0
2016-May-23 12:33N 39°26' W 000°20'0 0.0
2016-May-23 11:33N 39°26' W 000°20'0 0.0
2016-May-23 10:33N 39°26' W 000°20'0 0.0
2016-May-23 09:33N 39°26' W 000°20'0 0.0
2016-May-23 08:33N 39°26' W 000°20'0 0.0
2016-May-23 07:33N 39°26' W 000°20'0 0.0
2016-May-23 06:30N 39°26' W 000°20'0 0.0
2016-May-23 05:33N 39°26' W 000°20'0 0.0
2016-May-23 04:33N 39°26' W 000°20'0 0.0
2016-May-23 01:27N 39°26' W 000°20'0 0.0
2016-May-23 00:33N 39°26' W 000°20'0 0.0
2016-May-22 21:12N 39°26' W 000°20'0 0.0
2016-May-22 20:24N 39°26' W 000°20'0 0.0
2016-May-22 16:33N 39°26' W 000°20'4 3.7
2016-May-22 15:32N 39°25' W 000°15'5613.9
2016-May-22 11:33N 39°19' E 000°57'1615.7
2016-May-22 10:33N 39°18' E 001°17'1616.5
2016-May-22 09:33N 39°15' E 001°38'1717.0
2016-May-22 08:33N 39°11' E 001°59'1717.3
2016-May-22 07:33N 39°06' E 002°20'1717.3
2016-May-22 06:33N 39°01' E 002°41'1717.3
2016-May-22 05:33N 38°56' E 003°03'1717.3
2016-May-22 04:33N 38°53' E 003°25'1717.4
2016-May-22 03:33N 38°49' E 003°46'1717.3
2016-May-22 02:33N 38°45' E 004°08'7117.8
2016-May-21 22:33N 38°30' E 005°37'16017.6
2016-May-21 13:27N 37°56' E 008°57'23316.8
2016-May-20 23:33N 36°42' E 013°34'1916.6
2016-May-20 22:24N 36°35' E 013°57'1416.7
2016-May-20 21:34N 36°31' E 014°14'1717.0
2016-May-20 20:34N 36°25' E 014°34'1717.0
2016-May-20 19:33N 36°20' E 014°54'  
Track history (hours):
 
Tides and Currents Weather Stations Pressure Air Temp Water Temp Dewpoint Dewpoint Depression Visibility Wind Speed Wind Dir Waves Ship Positions

MOL Paramount

Last reported at 2016-May-29 04:33 UTC. Time now 2016-May-29 05:48 UTC.
Position N 51°23' E 002°00'.

Length 293 m; draft 9.6 m.

Type: Cargo ship. MMSI: 371519000.

Date/timePositionNaut miles runAvg speedWind from/ knotsBaromVisibWave heightAir tempDewpointWater temp
2016-May-29 04:33N 51°23' E 002°00'1010.5
2016-May-29 03:33N 51°29' E 001°47'10 9.9
2016-May-29 02:33N 51°28' E 001°31'1010.0
2016-May-29 01:33N 51°36' E 001°21'1313.1
2016-May-29 00:33N 51°30' E 001°02'1515.4
2016-May-28 23:33N 51°30' E 000°37'5 4.6
2016-May-28 22:34N 51°30' E 000°30'0 0.0
2016-May-28 21:34N 51°30' E 000°30'0 0.0
2016-May-28 20:34N 51°30' E 000°30'0 0.0
2016-May-28 19:33N 51°30' E 000°30'0 0.0
2016-May-28 18:34N 51°30' E 000°30'0 0.0
2016-May-28 17:33N 51°30' E 000°30'0 0.0
2016-May-28 16:34N 51°30' E 000°30'0 0.0
2016-May-28 15:34N 51°30' E 000°30'0 0.0
2016-May-28 14:34N 51°30' E 000°30'0 0.0
2016-May-28 13:34N 51°30' E 000°30'1 1.0
2016-May-28 12:33N 51°30' E 000°31'1111.2
2016-May-28 11:33N 51°29' E 000°49'1717.0
2016-May-28 10:34N 51°35' E 001°15'1817.8
2016-May-28 09:34N 51°48' E 001°35'7 7.5
2016-May-28 08:34N 51°51' E 001°46'10 9.7
2016-May-28 07:34N 51°42' E 001°49'1312.6
2016-May-28 06:33N 51°30' E 001°56'1312.8
2016-May-28 05:33N 51°19' E 002°07'1313.4
2016-May-28 04:33N 51°10' E 001°52'1514.9
2016-May-28 03:34N 51°00' E 001°34'1515.0
2016-May-28 02:33N 50°47' E 001°23'3214.7
2016-May-28 00:21N 50°26' E 000°45'1215.5
2016-May-27 23:33N 50°23' E 000°26'1515.4
2016-May-27 22:33N 50°19' E 000°03'1615.7
2016-May-27 21:33N 50°15' W 000°21'1616.0
2016-May-27 20:33N 50°11' W 000°46'1615.5
2016-May-27 19:33N 50°07' W 001°09'1515.0
2016-May-27 18:33N 50°04' W 001°32'1414.1
2016-May-27 17:33N 50°01' W 001°53'1513.9
2016-May-27 16:27N 49°56' W 002°16'1914.9
2016-May-27 15:11N 49°51' W 002°44'1215.0
2016-May-27 14:22N 49°47' W 003°02'1215.0
2016-May-27 13:34N 49°40' W 003°18'1615.0
2016-May-27 12:31N 49°32' W 003°39'1415.1
2016-May-27 11:33N 49°25' W 003°57'1514.2
2016-May-27 10:30N 49°17' W 004°17'4314.7
2016-May-27 07:33N 48°55' W 005°14'1515.2
2016-May-27 06:33N 48°48' W 005°34'1514.8
2016-May-27 05:33N 48°35' W 005°47'59714.9
2016-May-25 13:33N 39°04' W 009°52'1615.9
2016-May-25 12:33N 38°49' W 009°52'1515.3
2016-May-25 11:33N 38°34' W 009°48'1615.5
2016-May-25 10:33N 38°18' W 009°44'1515.4
2016-May-25 09:33N 38°03' W 009°40'1615.4
2016-May-25 08:33N 37°48' W 009°35'9913.6
2016-May-25 01:14N 36°31' W 008°17'13315.3
2016-May-24 16:32N 35°58' W 005°37'1414.7
2016-May-24 15:33N 36°02' W 005°20'19914.8
2016-May-24 02:07N 36°60' W 001°23'2616.4
2016-May-24 00:31N 37°17' W 000°58'1616.0
2016-May-23 23:33N 37°27' W 000°43'1616.1
2016-May-23 22:33N 37°39' W 000°29'1616.5
2016-May-23 21:33N 37°53' W 000°18'1716.7
2016-May-23 20:31N 38°07' W 000°06'1616.3
2016-May-23 19:33N 38°21' E 000°05'1615.8
2016-May-23 18:33N 38°34' E 000°16'2613.1
2016-May-23 16:33N 38°60' E 000°10'1815.5
2016-May-23 15:24N 39°14' W 000°04'1315.5
2016-May-23 14:33N 39°24' W 000°15'4 4.2
2016-May-23 13:33N 39°26' W 000°20'0 0.0
2016-May-23 12:33N 39°26' W 000°20'0 0.0
2016-May-23 11:33N 39°26' W 000°20'0 0.0
2016-May-23 10:33N 39°26' W 000°20'0 0.0
2016-May-23 09:33N 39°26' W 000°20'0 0.0
2016-May-23 08:33N 39°26' W 000°20'0 0.0
2016-May-23 07:33N 39°26' W 000°20'0 0.0
2016-May-23 06:30N 39°26' W 000°20'0 0.0
2016-May-23 05:33N 39°26' W 000°20'0 0.0
2016-May-23 04:33N 39°26' W 000°20'0 0.0
2016-May-23 01:27N 39°26' W 000°20'0 0.0
2016-May-23 00:33N 39°26' W 000°20'0 0.0
2016-May-22 21:12N 39°26' W 000°20'0 0.0
2016-May-22 20:24N 39°26' W 000°20'0 0.0
2016-May-22 16:33N 39°26' W 000°20'4 3.7
2016-May-22 15:32N 39°25' W 000°15'5613.9
2016-May-22 11:33N 39°19' E 000°57'1615.7
2016-May-22 10:33N 39°18' E 001°17'1616.5
2016-May-22 09:33N 39°15' E 001°38'1717.0
2016-May-22 08:33N 39°11' E 001°59'1717.3
2016-May-22 07:33N 39°06' E 002°20'1717.3
2016-May-22 06:33N 39°01' E 002°41'1717.3
2016-May-22 05:33N 38°56' E 003°03'1717.3
2016-May-22 04:33N 38°53' E 003°25'1717.4
2016-May-22 03:33N 38°49' E 003°46'1717.3
2016-May-22 02:33N 38°45' E 004°08'7117.8
2016-May-21 22:33N 38°30' E 005°37'16017.6
2016-May-21 13:27N 37°56' E 008°57'23316.8
2016-May-20 23:33N 36°42' E 013°34'1916.6
2016-May-20 22:24N 36°35' E 013°57'1416.7
2016-May-20 21:34N 36°31' E 014°14'1717.0
2016-May-20 20:34N 36°25' E 014°34'1717.0
2016-May-20 19:33N 36°20' E 014°54'  

Dump ship's entire track history